Saint Joseph, Iowa
Current Conditions -  °F | °C
As of 4:35 AM on Thursday 23 Oct 2014 (Local Time) from KAXA Reporting Station
Light Rain Light Rain  
Wind Chill: 54°   Ceiling: 900
Heat Index: 54°   Visibility: 7mi
Dew Point: 54°   Wind: 5mph
Humidity: 100%   Direction: 180°S
Pressure: 30.02"   Gusts: NA
Location:  42.8572°N, 94.2676°W
Report Text: KAXA 230935Z AUTO 18004KT 7SM -RA BKN009 OVC013 12/12 A3002 RMK AO2
Loading
Personal Weather Stations






























Interactive Weather Map
Tropical Storm Tracking
New forecast layout! Learn more

10-Day Weather Forecast

Advertisements
Track Severe Weather on mobile